Time;durP1;ratioP1;P1;durP2;ratioP2;P2;SDS_P1;SDS_P2;PMS_P1;PMS_P2;Temp;Humidity;BMP_temperature;BMP_pressure;BME280_temperature;BME280_humidity;BME280_pressure;Samples;Min_cycle;Max_cycle;Signal;HPM_P1;HPM_P2
2021/05/07 00:01:06;;;;;;;13.07;9.52;;;7.20;84.10;;;;;;5095261;28;20028;-74
2021/05/07 00:03:31;;;;;;;11.85;8.70;;;7.10;84.10;;;;;;5077479;28;20032;-74
2021/05/07 00:05:57;;;;;;;10.05;7.80;;;7.10;84.10;;;;;;5084703;28;20385;-74
2021/05/07 00:08:31;;;;;;;11.05;8.38;;;7.10;84.10;;;;;;5094901;28;20105;-74
2021/05/07 00:10:58;;;;;;;10.68;8.07;;;7.10;84.00;;;;;;5079810;28;20032;-74
2021/05/07 00:13:24;;;;;;;10.93;8.57;;;7.00;84.00;;;;;;5083693;28;20020;-73
2021/05/07 00:15:50;;;;;;;10.85;8.50;;;7.00;83.90;;;;;;5093583;28;20119;-74
2021/05/07 00:18:16;;;;;;;10.88;7.55;;;7.00;83.90;;;;;;5095171;28;20103;-74
2021/05/07 00:20:42;;;;;;;12.13;9.07;;;6.90;84.00;;;;;;5091552;28;20051;-74
2021/05/07 00:23:08;;;;;;;9.95;7.57;;;6.90;84.10;;;;;;5094283;28;20040;-74
2021/05/07 00:25:33;;;;;;;11.30;8.20;;;6.80;84.00;;;;;;5094827;28;20024;-74
2021/05/07 00:28:07;;;;;;;13.65;8.25;;;6.80;84.60;;;;;;5095307;28;20036;-74
2021/05/07 00:30:34;;;;;;;18.38;9.35;;;6.80;84.30;;;;;;5082990;28;20058;-74
2021/05/07 00:32:59;;;;;;;14.48;9.25;;;6.80;84.20;;;;;;5094459;28;20028;-74
2021/05/07 00:35:25;;;;;;;13.20;8.82;;;6.80;84.10;;;;;;5092477;28;20119;-74
2021/05/07 00:37:52;;;;;;;11.85;9.40;;;6.80;84.00;;;;;;5069970;28;20530;-74
2021/05/07 00:40:18;;;;;;;12.48;8.40;;;6.80;84.00;;;;;;5089326;28;20548;-74
2021/05/07 00:42:44;;;;;;;12.73;8.60;;;6.70;83.90;;;;;;5089964;28;20020;-74
2021/05/07 00:45:11;;;;;;;10.88;8.73;;;6.70;83.90;;;;;;5074916;28;20023;-74
2021/05/07 00:47:41;;;;;;;11.40;8.73;;;6.70;83.80;;;;;;5081866;28;20451;-74
2021/05/07 00:50:07;;;;;;;12.80;9.73;;;6.60;83.80;;;;;;5081087;28;20032;-74
2021/05/07 00:52:37;;;;;;;11.50;9.13;;;6.60;83.90;;;;;;5104544;28;20373;-74
2021/05/07 00:55:06;;;;;;;12.10;9.68;;;6.60;83.90;;;;;;5074580;28;20025;-74
2021/05/07 00:57:33;;;;;;;12.80;10.05;;;6.50;83.80;;;;;;5082729;28;20036;-74
2021/05/07 00:59:58;;;;;;;12.32;9.65;;;6.50;83.90;;;;;;5093239;28;20436;-74
2021/05/07 01:02:24;;;;;;;12.63;10.10;;;6.50;83.90;;;;;;5094511;28;20036;-73
2021/05/07 01:04:50;;;;;;;14.40;10.70;;;6.40;83.90;;;;;;5093746;28;20514;-74
2021/05/07 01:07:16;;;;;;;18.60;10.57;;;6.40;84.10;;;;;;5068017;28;20016;-75
2021/05/07 01:09:43;;;;;;;16.17;11.80;;;6.40;84.40;;;;;;5077078;28;20025;-74
2021/05/07 01:12:09;;;;;;;14.38;10.60;;;6.40;84.40;;;;;;5082603;28;20047;-73
2021/05/07 01:14:36;;;;;;;13.98;10.77;;;6.40;84.40;;;;;;5094464;28;20024;-74
2021/05/07 01:17:02;;;;;;;16.50;11.13;;;6.40;84.60;;;;;;5089374;28;20042;-74
2021/05/07 01:19:27;;;;;;;16.35;11.07;;;6.40;84.60;;;;;;5087137;28;20029;-74
2021/05/07 01:21:56;;;;;;;14.77;11.55;;;6.40;84.60;;;;;;5062659;28;20028;-74
2021/05/07 01:24:25;;;;;;;15.57;11.82;;;6.40;84.50;;;;;;5074075;28;20089;-74
2021/05/07 01:26:52;;;;;;;16.27;11.93;;;6.40;84.50;;;;;;5067055;28;20041;-73
2021/05/07 01:29:18;;;;;;;20.58;13.77;;;6.40;84.50;;;;;;5088548;28;20067;-74
2021/05/07 01:31:45;;;;;;;15.60;12.02;;;6.30;84.40;;;;;;5082783;28;20060;-73
2021/05/07 01:34:11;;;;;;;18.33;12.70;;;6.20;85.20;;;;;;5074411;28;20040;-75
2021/05/07 01:36:36;;;;;;;17.70;13.23;;;6.20;84.50;;;;;;5074632;28;20032;-73
2021/05/07 01:39:03;;;;;;;18.73;13.27;;;6.20;84.60;;;;;;5093852;28;20545;-73
2021/05/07 01:41:28;;;;;;;14.07;11.70;;;6.10;84.60;;;;;;5074865;28;20385;-73
2021/05/07 01:43:56;;;;;;;22.30;15.80;;;6.10;84.70;;;;;;5093569;28;20028;-74
2021/05/07 01:46:22;;;;;;;16.63;13.02;;;6.10;84.70;;;;;;5092669;28;20032;-74
2021/05/07 01:48:47;;;;;;;20.67;14.00;;;6.00;84.80;;;;;;5075585;28;20035;-73
2021/05/07 01:51:13;;;;;;;16.55;13.52;;;6.00;85.00;;;;;;5080119;28;20039;-74
2021/05/07 01:53:39;;;;;;;17.98;13.07;;;6.00;85.00;;;;;;5055657;28;20041;-74
2021/05/07 01:56:04;;;;;;;20.25;14.32;;;6.00;85.10;;;;;;5082908;28;20516;-74
2021/05/07 01:58:30;;;;;;;17.80;13.20;;;6.00;85.10;;;;;;5073250;28;20432;-74
2021/05/07 02:00:56;;;;;;;20.08;13.68;;;6.10;85.00;;;;;;5066787;28;20020;-74
2021/05/07 02:03:21;;;;;;;20.20;14.15;;;6.10;84.90;;;;;;5057948;28;20388;-73
2021/05/07 02:05:47;;;;;;;21.48;14.55;;;6.10;84.90;;;;;;5073646;28;20024;-73
2021/05/07 02:08:12;;;;;;;22.08;14.70;;;6.10;84.90;;;;;;5074831;28;20067;-74
2021/05/07 02:10:39;;;;;;;20.48;14.30;;;6.10;85.00;;;;;;5092935;28;20034;-74
2021/05/07 02:13:07;;;;;;;26.67;16.13;;;6.10;85.10;;;;;;5092771;28;20028;-73
2021/05/07 02:15:33;;;;;;;27.88;17.33;;;6.10;85.10;;;;;;5074089;28;20084;-73
2021/05/07 02:18:00;;;;;;;22.83;16.52;;;6.10;85.20;;;;;;5091929;28;20039;-73
2021/05/07 02:20:27;;;;;;;23.90;17.73;;;6.10;85.40;;;;;;5092733;28;20035;-74
2021/05/07 02:22:54;;;;;;;23.15;17.08;;;6.10;85.70;;;;;;5092519;28;20028;-74
2021/05/07 02:25:25;;;;;;;30.45;19.10;;;6.10;85.80;;;;;;5074666;28;20028;-73
2021/05/07 02:27:52;;;;;;;26.67;17.52;;;6.10;85.90;;;;;;5090909;28;20031;-74
2021/05/07 02:30:23;;;;;;;21.58;17.88;;;6.10;85.80;;;;;;5092904;28;20388;-74
2021/05/07 02:32:49;;;;;;;22.00;17.35;;;6.20;85.90;;;;;;5074147;28;20038;-73
2021/05/07 02:35:15;;;;;;;24.02;18.13;;;6.20;85.80;;;;;;5084124;28;20048;-73
2021/05/07 02:37:41;;;;;;;22.20;16.50;;;6.20;85.80;;;;;;5081319;28;20063;-73
2021/05/07 02:40:08;;;;;;;29.23;19.55;;;6.20;85.60;;;;;;5075023;28;20024;-73
2021/05/07 02:42:34;;;;;;;26.05;19.23;;;6.10;85.50;;;;;;5074013;28;20411;-73
2021/05/07 02:45:03;;;;;;;24.75;18.10;;;6.10;85.40;;;;;;5075023;28;20058;-73
2021/05/07 02:47:30;;;;;;;26.67;18.05;;;6.10;85.30;;;;;;5065621;28;20388;-73
2021/05/07 02:49:56;;;;;;;26.20;17.60;;;6.00;85.30;;;;;;5074874;28;20035;-73
2021/05/07 02:52:21;;;;;;;23.55;18.35;;;6.00;85.30;;;;;;5082332;28;20031;-74
2021/05/07 02:54:47;;;;;;;25.10;17.08;;;5.90;85.20;;;;;;5074830;28;20039;-74
2021/05/07 02:57:13;;;;;;;23.77;17.20;;;5.90;85.30;;;;;;5065647;28;20032;-74
2021/05/07 02:59:38;;;;;;;21.45;17.17;;;5.90;85.30;;;;;;5075902;28;20036;-74
2021/05/07 03:02:04;;;;;;;26.23;17.33;;;5.90;85.40;;;;;;5086633;28;20029;-73
2021/05/07 03:04:29;;;;;;;28.40;18.48;;;5.90;85.40;;;;;;5096953;28;20043;-73
2021/05/07 03:06:55;;;;;;;25.17;18.55;;;5.80;85.30;;;;;;5092701;28;20485;-73
2021/05/07 03:09:21;;;;;;;23.73;18.08;;;5.90;85.40;;;;;;5087577;28;20036;-73
2021/05/07 03:11:46;;;;;;;27.83;19.08;;;5.80;85.70;;;;;;5078763;28;20472;-74
2021/05/07 03:14:12;;;;;;;24.60;18.75;;;5.90;85.30;;;;;;5070159;28;20023;-74
2021/05/07 03:16:38;;;;;;;29.15;20.23;;;5.90;85.30;;;;;;5076564;28;20477;-73
2021/05/07 03:19:04;;;;;;;26.05;18.65;;;5.90;85.40;;;;;;5094597;28;20115;-73
2021/05/07 03:21:30;;;;;;;28.83;19.35;;;5.90;85.50;;;;;;5096792;28;20029;-74
2021/05/07 03:23:56;;;;;;;27.10;20.13;;;5.90;85.40;;;;;;5058149;28;20145;-73
2021/05/07 03:26:21;;;;;;;29.55;20.75;;;5.90;85.50;;;;;;5079054;28;20469;-73
2021/05/07 03:28:47;;;;;;;29.17;22.00;;;6.00;85.60;;;;;;5077546;28;20048;-73
2021/05/07 03:31:12;;;;;;;30.92;22.48;;;5.90;85.70;;;;;;5096057;28;20032;-73
2021/05/07 03:33:39;;;;;;;27.15;21.25;;;5.90;85.80;;;;;;5095676;28;20038;-73
2021/05/07 03:36:05;;;;;;;30.35;22.23;;;6.00;85.80;;;;;;5095584;28;20027;-73
2021/05/07 03:38:32;;;;;;;28.38;21.75;;;6.00;86.40;;;;;;5077491;28;20153;-73
2021/05/07 03:40:57;;;;;;;29.45;22.90;;;6.00;85.80;;;;;;5096328;28;20024;-73
2021/05/07 03:43:23;;;;;;;30.17;22.60;;;6.00;85.70;;;;;;5060961;28;20028;-73
2021/05/07 03:45:49;;;;;;;35.72;25.45;;;6.00;85.80;;;;;;5061472;28;20116;-73
2021/05/07 03:48:16;;;;;;;34.03;25.05;;;6.10;86.00;;;;;;5077946;28;20413;-73
2021/05/07 03:50:42;;;;;;;35.88;24.88;;;6.10;86.10;;;;;;5077039;28;20033;-73
2021/05/07 03:53:12;;;;;;;33.70;23.48;;;6.00;86.20;;;;;;5086763;28;20512;-73
2021/05/07 03:55:39;;;;;;;35.55;25.45;;;6.10;86.20;;;;;;5077344;28;20037;-74
2021/05/07 03:58:05;;;;;;;34.67;25.95;;;6.10;86.10;;;;;;5091612;28;20453;-73
2021/05/07 04:00:31;;;;;;;33.55;25.23;;;6.10;86.10;;;;;;5077470;28;20028;-73
2021/05/07 04:02:56;;;;;;;35.40;25.48;;;6.10;86.10;;;;;;5109928;28;20507;-73
2021/05/07 04:05:22;;;;;;;34.28;26.13;;;6.00;86.00;;;;;;5079474;28;20100;-74
2021/05/07 04:07:56;;;;;;;34.65;24.80;;;6.00;86.10;;;;;;5085417;28;20040;-73
2021/05/07 04:10:22;;;;;;;33.08;25.77;;;6.00;86.20;;;;;;5057712;28;20036;-74
2021/05/07 04:15:14;;;;;;;33.70;25.10;;;5.90;86.30;;;;;;5077732;28;20135;-74
2021/05/07 04:17:40;;;;;;;37.30;25.55;;;6.00;86.50;;;;;;5092445;28;20497;-74
2021/05/07 04:20:07;;;;;;;34.20;24.90;;;6.00;86.30;;;;;;5060804;28;20028;-74
2021/05/07 04:22:34;;;;;;;34.17;24.42;;;6.00;86.20;;;;;;5093972;28;20556;-74
2021/05/07 04:24:59;;;;;;;31.70;24.67;;;6.10;86.20;;;;;;5075283;28;20104;-74
2021/05/07 04:27:25;;;;;;;33.47;24.02;;;6.10;86.20;;;;;;5065543;28;20123;-73
2021/05/07 04:29:51;;;;;;;39.22;28.40;;;6.10;86.30;;;;;;5094878;28;20020;-73
2021/05/07 04:32:17;;;;;;;37.72;27.35;;;6.00;86.50;;;;;;5076810;28;20028;-74
2021/05/07 04:34:43;;;;;;;36.33;25.75;;;6.00;86.90;;;;;;5094895;28;20515;-74
2021/05/07 04:37:08;;;;;;;35.20;24.83;;;6.00;87.10;;;;;;5094368;28;20032;-73
2021/05/07 04:39:34;;;;;;;41.95;29.40;;;6.10;87.30;;;;;;5095205;28;20040;-73
2021/05/07 04:42:00;;;;;;;44.05;30.13;;;6.10;87.30;;;;;;5094266;28;20034;-73
2021/05/07 04:44:25;;;;;;;45.08;30.75;;;6.10;87.60;;;;;;5081150;28;20024;-73
2021/05/07 04:46:52;;;;;;;48.38;30.70;;;6.10;88.40;;;;;;5055016;28;20375;-73
2021/05/07 04:49:18;;;;;;;42.80;28.33;;;6.10;88.60;;;;;;5074911;28;20492;-73
2021/05/07 04:51:44;;;;;;;29.40;21.98;;;6.00;88.60;;;;;;5089934;28;20111;-74
2021/05/07 04:54:09;;;;;;;35.67;24.02;;;5.90;88.50;;;;;;5093293;28;20032;-73
2021/05/07 04:56:35;;;;;;;29.75;23.42;;;5.90;88.50;;;;;;5080338;28;20029;-74
2021/05/07 04:59:00;;;;;;;29.98;21.90;;;5.90;88.40;;;;;;5059861;28;20114;-74
2021/05/07 05:01:26;;;;;;;32.28;23.45;;;6.00;88.50;;;;;;5068316;28;20036;-73
2021/05/07 05:03:52;;;;;;;27.20;21.05;;;6.00;88.50;;;;;;5060245;28;20432;-73
2021/05/07 05:06:17;;;;;;;27.77;22.30;;;6.10;88.40;;;;;;5069246;28;20024;-74
2021/05/07 05:08:43;;;;;;;28.55;22.00;;;6.20;88.30;;;;;;5095339;28;20032;-73
2021/05/07 05:11:08;;;;;;;32.05;21.75;;;6.20;88.10;;;;;;5109409;28;20382;-74
2021/05/07 05:13:34;;;;;;;31.27;22.38;;;6.30;88.10;;;;;;5075654;28;20039;-73
2021/05/07 05:16:00;;;;;;;31.65;22.52;;;6.30;87.90;;;;;;5090812;28;20032;-74
2021/05/07 05:18:32;;;;;;;30.70;22.25;;;6.40;87.90;;;;;;5085906;28;20028;-74
2021/05/07 05:21:04;;;;;;;28.55;22.38;;;6.40;87.80;;;;;;5097858;28;20100;-73
2021/05/07 05:23:30;;;;;;;32.38;23.13;;;6.40;87.70;;;;;;5093079;28;20114;-74
2021/05/07 05:25:56;;;;;;;27.85;20.48;;;6.40;87.70;;;;;;5085906;28;20650;-74
2021/05/07 05:28:22;;;;;;;28.35;21.25;;;6.50;87.70;;;;;;5077050;28;20032;-74
2021/05/07 05:30:48;;;;;;;28.35;21.63;;;6.50;88.30;;;;;;5079044;28;20032;-74
2021/05/07 05:33:14;;;;;;;31.73;21.45;;;6.50;87.50;;;;;;5087615;28;20096;-73
2021/05/07 05:35:40;;;;;;;30.23;21.30;;;6.50;87.40;;;;;;5083644;28;20075;-73
2021/05/07 05:38:06;;;;;;;29.38;20.80;;;6.40;87.10;;;;;;5066572;28;20400;-73
2021/05/07 05:40:32;;;;;;;34.20;23.73;;;6.30;86.90;;;;;;5075553;28;20032;-73
2021/05/07 05:42:58;;;;;;;33.33;22.77;;;6.20;87.00;;;;;;5091059;28;20027;-73
2021/05/07 05:45:25;;;;;;;33.45;23.27;;;6.00;87.10;;;;;;5093726;28;20039;-74
2021/05/07 05:48:05;;;;;;;30.23;22.70;;;5.90;87.50;;;;;;5083847;28;20027;-73
2021/05/07 05:50:32;;;;;;;32.70;22.10;;;5.90;88.00;;;;;;5090709;28;20024;-73
2021/05/07 05:52:57;;;;;;;33.70;22.95;;;5.90;88.10;;;;;;5091993;28;20028;-73
2021/05/07 05:55:23;;;;;;;40.55;26.85;;;5.90;88.40;;;;;;5086123;28;20031;-74
2021/05/07 05:57:49;;;;;;;30.58;23.40;;;5.90;88.40;;;;;;5073377;28;20029;-74
2021/05/07 06:00:15;;;;;;;32.58;23.98;;;5.90;88.70;;;;;;5089107;28;20025;-73
2021/05/07 06:02:41;;;;;;;42.50;27.15;;;5.80;89.20;;;;;;5055580;28;20028;-74
2021/05/07 06:05:08;;;;;;;34.17;25.35;;;5.70;89.70;;;;;;5059566;28;20522;-73
2021/05/07 06:07:34;;;;;;;35.03;24.98;;;5.80;90.00;;;;;;5070787;28;20024;-73
2021/05/07 06:10:00;;;;;;;32.08;24.60;;;5.80;89.90;;;;;;5073089;28;20094;-73
2021/05/07 06:12:25;;;;;;;36.08;26.58;;;5.80;89.50;;;;;;5073249;28;20029;-73
2021/05/07 06:14:51;;;;;;;34.72;25.38;;;5.80;89.20;;;;;;5074800;28;20524;-73
2021/05/07 06:17:16;;;;;;;33.90;24.88;;;5.80;89.10;;;;;;5093425;28;20035;-73
2021/05/07 06:19:42;;;;;;;32.22;24.83;;;5.80;89.30;;;;;;5093293;28;20072;-73
2021/05/07 06:22:08;;;;;;;29.35;22.17;;;5.80;89.50;;;;;;5070983;28;20378;-73
2021/05/07 06:24:33;;;;;;;25.70;18.77;;;5.80;89.50;;;;;;5084250;28;20076;-73
2021/05/07 06:26:59;;;;;;;23.60;16.52;;;5.80;89.00;;;;;;5087010;28;20059;-73
2021/05/07 06:29:26;;;;;;;19.35;14.65;;;5.70;88.80;;;;;;5078527;28;20616;-73
2021/05/07 06:31:52;;;;;;;20.40;14.85;;;5.70;88.80;;;;;;5093239;28;20047;-73
2021/05/07 06:34:17;;;;;;;18.00;13.07;;;5.60;88.50;;;;;;5091910;28;20040;-73
2021/05/07 06:36:43;;;;;;;12.38;9.60;;;5.60;88.50;;;;;;5068516;28;20492;-73
2021/05/07 06:39:09;;;;;;;11.30;8.98;;;5.50;87.90;;;;;;5074985;28;20032;-73
2021/05/07 06:41:34;;;;;;;8.93;6.88;;;5.40;87.70;;;;;;5074652;28;20020;-73
2021/05/07 06:44:00;;;;;;;7.80;6.18;;;5.30;88.00;;;;;;5074474;28;20068;-74
2021/05/07 06:46:26;;;;;;;8.55;6.10;;;5.20;87.90;;;;;;5092660;28;20431;-73
2021/05/07 06:48:51;;;;;;;7.20;5.57;;;5.20;87.90;;;;;;5074874;28;20118;-73
2021/05/07 06:51:17;;;;;;;7.80;6.00;;;5.20;88.10;;;;;;5074158;28;20384;-74
2021/05/07 06:53:43;;;;;;;6.40;5.63;;;5.10;88.30;;;;;;5092201;28;20086;-73
2021/05/07 06:56:09;;;;;;;5.32;4.40;;;5.20;88.50;;;;;;5092813;28;20031;-73
2021/05/07 06:58:36;;;;;;;7.38;5.32;;;5.20;88.50;;;;;;5074687;28;20030;-74
2021/05/07 07:01:03;;;;;;;7.45;5.00;;;5.30;88.40;;;;;;5092787;28;20439;-74
2021/05/07 07:03:28;;;;;;;9.10;5.18;;;5.40;88.40;;;;;;5069550;28;20036;-73
2021/05/07 07:05:54;;;;;;;6.35;4.30;;;5.50;88.20;;;;;;5069143;28;20090;-74
2021/05/07 07:08:20;;;;;;;9.70;5.40;;;5.60;87.90;;;;;;5092600;28;20024;-73
2021/05/07 07:10:45;;;;;;;9.45;5.57;;;5.70;87.80;;;;;;5092831;28;20396;-74
2021/05/07 07:13:11;;;;;;;7.85;5.10;;;5.80;87.60;;;;;;5072187;28;20103;-74
2021/05/07 07:15:37;;;;;;;7.78;5.25;;;5.90;87.80;;;;;;5091047;28;20434;-74
2021/05/07 07:18:03;;;;;;;5.05;4.10;;;5.90;87.80;;;;;;5107354;28;20429;-74
2021/05/07 07:20:30;;;;;;;4.95;3.70;;;6.00;87.80;;;;;;5092774;28;20037;-74
2021/05/07 07:22:59;;;;;;;4.75;3.85;;;5.90;87.00;;;;;;5075033;28;20476;-74
2021/05/07 07:25:24;;;;;;;5.47;4.25;;;6.00;87.40;;;;;;5092357;28;20039;-74
2021/05/07 07:27:50;;;;;;;3.95;3.45;;;6.10;87.50;;;;;;5092743;28;20040;-76
2021/05/07 07:30:16;;;;;;;5.25;3.35;;;6.30;87.20;;;;;;5074121;28;20446;-76
2021/05/07 07:32:42;;;;;;;4.80;3.95;;;6.50;86.20;;;;;;5092599;28;20051;-76
2021/05/07 07:35:09;;;;;;;4.90;3.70;;;6.70;85.70;;;;;;5092112;28;20044;-76
2021/05/07 07:37:35;;;;;;;5.80;3.75;;;6.90;85.40;;;;;;5074476;28;20024;-76
2021/05/07 07:40:01;;;;;;;4.50;3.40;;;6.90;85.00;;;;;;5092482;28;20032;-76
2021/05/07 07:42:27;;;;;;;4.78;3.67;;;6.90;84.90;;;;;;5092051;28;20047;-76
2021/05/07 07:44:52;;;;;;;5.85;3.50;;;7.10;84.50;;;;;;5090160;28;20036;-76
2021/05/07 07:47:18;;;;;;;6.60;5.03;;;7.30;85.00;;;;;;5067924;28;20028;-76
2021/05/07 07:49:43;;;;;;;13.20;7.30;;;7.30;84.10;;;;;;5093441;28;20043;-76
2021/05/07 07:52:09;;;;;;;12.98;6.45;;;7.30;84.40;;;;;;5096236;28;20032;-74
2021/05/07 07:54:35;;;;;;;5.05;3.97;;;7.30;85.30;;;;;;5054433;28;20391;-74
2021/05/07 07:57:00;;;;;;;5.30;4.18;;;7.60;85.20;;;;;;5096929;28;20035;-74
2021/05/07 07:59:26;;;;;;;6.55;5.35;;;7.60;84.60;;;;;;5085956;28;20165;-74
2021/05/07 08:01:52;;;;;;;3.90;3.53;;;7.70;85.00;;;;;;5075415;28;20024;-74
2021/05/07 08:04:17;;;;;;;4.10;3.70;;;7.70;84.10;;;;;;5041554;28;20063;-74
2021/05/07 08:06:45;;;;;;;4.47;3.70;;;7.90;84.20;;;;;;5058765;28;20054;-74
2021/05/07 08:09:10;;;;;;;5.05;4.30;;;8.20;84.60;;;;;;5079643;28;20036;-74
2021/05/07 08:11:36;;;;;;;4.80;3.40;;;8.50;84.20;;;;;;5099605;28;20429;-74
2021/05/07 08:14:01;;;;;;;4.85;3.17;;;8.40;82.50;;;;;;5095831;28;20137;-74
2021/05/07 08:16:29;;;;;;;4.80;3.40;;;8.30;82.30;;;;;;5077775;28;20115;-74
2021/05/07 08:18:55;;;;;;;3.35;3.05;;;8.40;83.70;;;;;;5095220;28;20032;-74
2021/05/07 08:21:22;;;;;;;3.33;3.00;;;8.40;83.40;;;;;;5095585;28;20036;-74
2021/05/07 08:23:48;;;;;;;3.80;3.08;;;8.20;82.90;;;;;;5077012;28;20069;-74
2021/05/07 08:26:14;;;;;;;6.60;3.33;;;8.10;82.80;;;;;;5095632;28;20032;-74
2021/05/07 08:28:39;;;;;;;4.72;3.53;;;8.10;83.30;;;;;;5095501;28;20106;-80
2021/05/07 08:31:05;;;;;;;3.42;2.65;;;8.40;83.30;;;;;;5095600;28;20055;-74
2021/05/07 08:33:30;;;;;;;3.17;2.83;;;8.60;82.60;;;;;;5077008;28;20115;-74
2021/05/07 08:35:56;;;;;;;3.15;2.50;;;8.80;83.10;;;;;;5095022;28;20048;-74
2021/05/07 08:38:22;;;;;;;3.58;2.33;;;9.20;80.80;;;;;;5095134;28;20044;-74
2021/05/07 08:40:48;;;;;;;3.35;2.67;;;9.30;79.70;;;;;;5094163;28;20097;-74
2021/05/07 08:43:14;;;;;;;2.38;2.15;;;9.40;79.50;;;;;;5101247;28;20368;-74
2021/05/07 08:45:41;;;;;;;5.68;2.85;;;9.50;79.60;;;;;;5094221;28;20495;-74
2021/05/07 08:48:07;;;;;;;3.45;2.50;;;9.80;79.70;;;;;;5093512;28;20028;-74
2021/05/07 08:50:34;;;;;;;3.25;2.70;;;9.80;77.80;;;;;;5115628;28;20062;-74
2021/05/07 08:53:00;;;;;;;4.05;2.70;;;9.90;77.90;;;;;;5070103;28;20040;-74
2021/05/07 08:55:26;;;;;;;2.78;2.58;;;10.00;77.50;;;;;;5094934;28;20055;-74
2021/05/07 08:57:51;;;;;;;3.92;2.60;;;9.90;76.50;;;;;;5093862;28;20052;-73
2021/05/07 09:00:17;;;;;;;3.38;2.65;;;9.70;76.60;;;;;;5086311;28;20447;-74
2021/05/07 09:02:43;;;;;;;3.75;3.22;;;9.50;77.80;;;;;;5115318;28;20020;-74
2021/05/07 09:05:09;;;;;;;4.43;3.00;;;9.40;78.50;;;;;;5106605;28;20092;-74
2021/05/07 09:07:35;;;;;;;3.78;3.30;;;9.30;78.60;;;;;;5090286;28;20032;-74
2021/05/07 09:10:03;;;;;;;3.00;2.70;;;9.10;78.50;;;;;;5096004;28;20024;-74
2021/05/07 09:12:38;;;;;;;3.20;2.55;;;9.30;78.80;;;;;;5098806;28;20482;-74
2021/05/07 09:15:08;;;;;;;4.70;3.40;;;9.50;77.90;;;;;;5056848;28;20113;-74
2021/05/07 09:17:36;;;;;;;2.65;2.42;;;9.70;77.60;;;;;;5090410;28;20113;-74
2021/05/07 09:20:07;;;;;;;6.30;3.17;;;9.80;77.40;;;;;;5064856;28;20068;-74
2021/05/07 09:22:33;;;;;;;4.80;2.85;;;10.20;76.50;;;;;;5060569;28;20503;-74
2021/05/07 09:25:16;;;;;;;3.65;3.00;;;10.30;73.70;;;;;;5076558;28;20027;-74
2021/05/07 09:27:43;;;;;;;4.22;2.95;;;10.20;73.70;;;;;;5077706;28;20024;-74
2021/05/07 09:30:24;;;;;;;4.93;2.90;;;10.30;74.70;;;;;;5083083;28;20441;-74
2021/05/07 09:32:54;;;;;;;3.75;2.63;;;10.50;74.40;;;;;;5093618;28;20081;-74
2021/05/07 09:35:27;;;;;;;6.70;2.90;;;10.50;72.50;;;;;;5075653;28;20051;-74
2021/05/07 09:38:04;;;;;;;3.75;2.83;;;10.80;73.20;;;;;;5094142;28;20480;-74
2021/05/07 09:40:30;;;;;;;3.72;2.95;;;11.10;71.10;;;;;;5075647;28;20370;-74
2021/05/07 09:43:07;;;;;;;6.57;2.78;;;11.30;69.80;;;;;;5093293;28;20030;-74
2021/05/07 09:45:34;;;;;;;5.75;2.80;;;11.20;67.80;;;;;;5093932;28;20480;-74
2021/05/07 09:48:00;;;;;;;3.25;2.50;;;11.00;69.10;;;;;;5087952;28;20030;-75
2021/05/07 09:50:39;;;;;;;5.63;2.70;;;11.10;70.10;;;;;;5083711;28;20028;-74
2021/05/07 09:53:13;;;;;;;4.03;2.45;;;11.50;67.90;;;;;;5093214;28;20028;-74
2021/05/07 09:55:39;;;;;;;4.72;2.83;;;11.80;66.60;;;;;;5075741;28;20028;-74
2021/05/07 09:58:05;;;;;;;4.25;2.38;;;12.00;66.10;;;;;;5073361;28;20036;-74
2021/05/07 10:00:31;;;;;;;4.38;2.50;;;12.00;64.80;;;;;;5049604;28;20123;-75
2021/05/07 10:02:57;;;;;;;4.07;2.75;;;11.70;64.10;;;;;;5090439;28;20031;-75
2021/05/07 10:05:29;;;;;;;3.53;2.40;;;11.30;65.60;;;;;;5088503;28;20028;-75
2021/05/07 10:07:58;;;;;;;4.90;2.60;;;11.30;65.70;;;;;;5063132;28;20028;-75
2021/05/07 10:10:32;;;;;;;4.82;2.60;;;11.60;66.50;;;;;;5101025;28;20053;-75
2021/05/07 10:13:00;;;;;;;4.05;2.05;;;12.00;64.70;;;;;;5071005;28;20036;-75
2021/05/07 10:15:27;;;;;;;3.55;2.60;;;12.20;60.60;;;;;;5091495;28;20378;-75
2021/05/07 10:17:53;;;;;;;8.48;2.65;;;12.20;61.20;;;;;;5075705;28;20035;-75
2021/05/07 10:20:31;;;;;;;5.05;2.28;;;12.10;61.80;;;;;;5075022;28;20481;-75
2021/05/07 10:22:57;;;;;;;4.13;2.17;;;12.10;60.60;;;;;;5093065;28;20032;-75
2021/05/07 10:25:25;;;;;;;3.70;2.53;;;12.20;59.30;;;;;;5094671;28;20039;-75
2021/05/07 10:27:53;;;;;;;4.32;2.60;;;12.10;60.50;;;;;;5076691;28;20045;-75
2021/05/07 10:30:26;;;;;;;4.40;2.30;;;11.90;60.60;;;;;;5080620;28;20032;-75
2021/05/07 10:33:01;;;;;;;3.72;2.63;;;11.70;61.80;;;;;;5073205;28;20107;-75
2021/05/07 10:35:35;;;;;;;3.17;1.95;;;11.80;63.50;;;;;;5077011;28;20361;-76
2021/05/07 10:38:17;;;;;;;7.18;2.13;;;12.20;60.50;;;;;;5096831;28;20031;-75
2021/05/07 10:40:45;;;;;;;5.15;2.40;;;12.50;59.00;;;;;;5093408;28;20043;-75
2021/05/07 10:43:12;;;;;;;2.40;2.10;;;12.60;58.90;;;;;;5066779;28;20025;-75
2021/05/07 10:45:48;;;;;;;2.42;1.95;;;12.60;59.40;;;;;;5083172;28;20024;-75
2021/05/07 10:48:15;;;;;;;4.68;2.40;;;12.50;59.20;;;;;;5109531;28;20031;-75
2021/05/07 10:50:40;;;;;;;3.05;2.53;;;12.50;59.90;;;;;;5083115;28;20525;-74
2021/05/07 10:53:07;;;;;;;6.10;2.50;;;12.30;59.70;;;;;;5073397;28;20040;-75
2021/05/07 10:55:34;;;;;;;3.15;2.60;;;12.30;61.50;;;;;;5072281;28;20024;-74
2021/05/07 10:58:01;;;;;;;3.33;2.10;;;12.70;61.20;;;;;;5075243;28;20036;-75
2021/05/07 11:00:39;;;;;;;4.82;2.50;;;13.20;58.50;;;;;;5079097;28;20024;-75
2021/05/07 11:03:05;;;;;;;6.00;2.83;;;13.50;57.80;;;;;;5072264;28;20028;-75
2021/05/07 11:05:39;;;;;;;5.30;2.90;;;13.60;59.50;;;;;;5074613;28;20042;-75
2021/05/07 11:08:06;;;;;;;4.53;2.80;;;13.80;57.80;;;;;;5088718;28;20545;-75
2021/05/07 11:10:32;;;;;;;4.10;3.45;;;13.80;56.10;;;;;;5091441;28;20452;-75
2021/05/07 11:12:58;;;;;;;4.35;3.03;;;13.70;57.10;;;;;;5090952;28;20060;-75
2021/05/07 11:15:25;;;;;;;5.45;3.20;;;13.40;57.80;;;;;;5081579;28;20036;-75
2021/05/07 11:18:11;;;;;;;4.78;3.33;;;13.10;59.30;;;;;;5074957;28;20114;-75
2021/05/07 11:20:41;;;;;;;4.38;2.90;;;12.90;59.20;;;;;;5093596;28;20056;-75
2021/05/07 11:23:13;;;;;;;3.47;3.17;;;12.80;60.20;;;;;;5067525;28;20024;-75
2021/05/07 11:25:40;;;;;;;4.38;3.17;;;13.20;60.10;;;;;;5076989;28;20029;-75
2021/05/07 11:28:16;;;;;;;3.47;2.47;;;13.50;57.80;;;;;;5076835;28;20385;-75
2021/05/07 11:30:52;;;;;;;5.45;3.08;;;13.90;56.90;;;;;;5095327;28;20055;-75
2021/05/07 11:33:19;;;;;;;4.45;3.13;;;14.20;55.30;;;;;;5062381;28;20077;-75
2021/05/07 11:35:45;;;;;;;7.45;3.53;;;14.50;54.30;;;;;;5095939;28;20076;-74
2021/05/07 11:38:11;;;;;;;3.55;3.25;;;14.70;54.50;;;;;;5091587;28;20413;-75
2021/05/07 11:40:39;;;;;;;6.90;3.60;;;14.90;55.10;;;;;;5092257;28;20066;-75
2021/05/07 11:43:13;;;;;;;4.97;3.20;;;14.80;52.20;;;;;;5080822;28;20089;-75
2021/05/07 11:45:41;;;;;;;5.30;3.10;;;14.80;54.10;;;;;;5089677;28;20488;-76
2021/05/07 11:48:12;;;;;;;3.78;3.05;;;15.00;54.20;;;;;;5076646;28;20061;-75
2021/05/07 11:50:39;;;;;;;5.70;3.10;;;15.10;52.20;;;;;;5092312;28;20542;-75
2021/05/07 11:53:05;;;;;;;5.15;3.22;;;15.20;52.40;;;;;;5077974;28;20028;-75
2021/05/07 11:55:33;;;;;;;3.25;2.47;;;15.30;53.60;;;;;;5095359;28;20136;-75
2021/05/07 11:58:00;;;;;;;3.30;2.50;;;15.50;53.00;;;;;;5095226;28;20028;-75
2021/05/07 12:00:27;;;;;;;3.40;2.42;;;15.90;53.10;;;;;;5059025;28;20119;-75
2021/05/07 12:03:05;;;;;;;4.53;2.70;;;16.20;52.20;;;;;;5078391;28;20039;-75
2021/05/07 12:05:39;;;;;;;4.30;2.60;;;16.30;51.50;;;;;;5068027;28;20054;-75
2021/05/07 12:08:07;;;;;;;2.90;2.65;;;16.20;49.40;;;;;;5057280;28;20488;-75
2021/05/07 12:10:34;;;;;;;4.72;2.63;;;16.10;49.60;;;;;;5095338;28;20024;-75
2021/05/07 12:13:00;;;;;;;3.35;2.42;;;15.80;48.10;;;;;;5076912;28;20127;-75
2021/05/07 12:15:30;;;;;;;3.60;2.40;;;15.50;49.30;;;;;;5077665;28;20024;-75
2021/05/07 12:17:56;;;;;;;3.97;2.28;;;15.20;48.80;;;;;;5094369;28;20480;-75
2021/05/07 12:20:27;;;;;;;3.03;2.10;;;14.90;50.90;;;;;;5082567;28;20024;-75
2021/05/07 12:22:55;;;;;;;2.28;2.05;;;14.80;50.10;;;;;;5093267;28;20178;-75
2021/05/07 12:25:21;;;;;;;4.43;2.35;;;14.50;48.40;;;;;;5095897;28;20092;-76
2021/05/07 12:27:50;;;;;;;3.35;2.10;;;14.10;50.00;;;;;;5095780;28;20382;-74
2021/05/07 12:30:28;;;;;;;5.38;2.45;;;13.80;50.70;;;;;;5093450;28;20484;-76
2021/05/07 12:33:03;;;;;;;8.50;2.22;;;13.50;51.60;;;;;;5075178;28;20443;-76
2021/05/07 12:35:55;;;;;;;5.38;2.13;;;13.40;53.20;;;;;;5082165;28;20037;-75
2021/05/07 12:38:38;;;;;;;4.05;2.08;;;13.60;52.40;;;;;;5088132;28;20028;-76
2021/05/07 12:41:07;;;;;;;3.40;1.88;;;14.20;50.50;;;;;;5042603;28;20123;-76
2021/05/07 12:43:41;;;;;;;3.92;1.52;;;14.50;50.40;;;;;;5069221;28;20032;-76
2021/05/07 12:46:09;;;;;;;2.80;1.92;;;14.50;50.60;;;;;;5077256;28;20017;-75
2021/05/07 12:48:35;;;;;;;3.75;2.08;;;14.80;50.00;;;;;;5091086;28;20394;-75